createdAt,value
2023-05-22T00:01:26.597Z,22.80
2023-05-22T00:06:29.987Z,22.80
2023-05-22T00:11:34.823Z,22.80
2023-05-22T00:16:39.125Z,22.80
2023-05-22T00:21:42.617Z,22.80
2023-05-22T00:26:45.477Z,22.80
2023-05-22T00:31:49.729Z,22.80
2023-05-22T00:36:52.596Z,22.80
2023-05-22T00:41:55.569Z,22.80
2023-05-22T00:47:00.032Z,22.70
2023-05-22T00:52:04.501Z,22.70
2023-05-22T00:57:08.043Z,22.70
2023-05-22T01:02:13.463Z,22.70
2023-05-22T01:07:17.906Z,22.70
2023-05-22T01:12:28.508Z,22.70
2023-05-22T01:17:40.899Z,22.70
2023-05-22T01:23:20.221Z,22.70
2023-05-22T01:28:43.081Z,22.70
2023-05-22T01:33:52.257Z,22.70
2023-05-22T01:38:56.572Z,22.70
2023-05-22T01:44:00.156Z,22.70
2023-05-22T01:49:04.546Z,22.70
2023-05-22T01:54:18.129Z,22.60
2023-05-22T01:59:28.057Z,22.60
2023-05-22T02:04:33.775Z,22.60
2023-05-22T02:09:38.076Z,22.60
2023-05-22T02:14:42.402Z,22.60
2023-05-22T02:19:46.825Z,22.60
2023-05-22T02:24:50.525Z,22.60
2023-05-22T02:29:53.406Z,22.60
2023-05-22T02:34:58.625Z,22.60
2023-05-22T02:40:01.512Z,22.60
2023-05-22T02:45:05.098Z,22.50
2023-05-22T02:50:10.236Z,22.50
2023-05-22T02:55:13.318Z,22.50
2023-05-22T03:00:16.962Z,22.50
2023-05-22T03:05:21.252Z,22.50
2023-05-22T03:10:24.488Z,22.60
2023-05-22T03:15:27.380Z,22.50
2023-05-22T03:20:32.776Z,22.50
2023-05-22T03:25:35.846Z,22.50
2023-05-22T03:30:38.908Z,22.50
2023-05-22T03:35:44.649Z,22.50
2023-05-22T03:40:47.548Z,22.50
2023-05-22T03:45:50.455Z,22.50
2023-05-22T03:50:54.690Z,22.50
2023-05-22T03:55:58.990Z,22.50
2023-05-22T04:01:01.991Z,22.50
2023-05-22T04:06:07.564Z,22.50
2023-05-22T04:11:11.087Z,22.60
2023-05-22T04:16:17.500Z,22.50
2023-05-22T04:21:23.639Z,22.50
2023-05-22T04:26:29.574Z,22.60
2023-05-22T04:31:32.562Z,22.60
2023-05-22T04:36:38.904Z,22.70
2023-05-22T04:41:41.902Z,22.80
2023-05-22T04:46:44.821Z,22.80
2023-05-22T04:51:49.149Z,22.70
2023-05-22T04:56:52.576Z,22.70
2023-05-22T05:01:55.469Z,22.70
2023-05-22T05:06:59.694Z,22.70
2023-05-22T05:12:03.220Z,22.70
2023-05-22T05:17:06.473Z,22.70
2023-05-22T05:22:10.837Z,22.70
2023-05-22T05:27:13.961Z,22.70
2023-05-22T05:32:17.423Z,22.70
2023-05-22T05:37:21.777Z,22.70
2023-05-22T05:42:24.673Z,22.70
2023-05-22T05:47:29.681Z,22.90
2023-05-22T05:52:34.222Z,23.00
2023-05-22T05:57:37.135Z,23.00
2023-05-22T06:02:40.138Z,23.00
2023-05-22T06:07:44.609Z,23.10
2023-05-22T06:12:47.516Z,23.10
2023-05-22T06:17:50.490Z,23.30
2023-05-22T06:22:54.775Z,23.30
2023-05-22T06:27:57.739Z,23.40
2023-05-22T06:33:00.640Z,23.50
2023-05-22T06:38:04.940Z,23.60
2023-05-22T06:43:07.867Z,23.80
2023-05-22T06:48:11.453Z,24.00
2023-05-22T06:53:15.673Z,24.20
2023-05-22T06:58:19.034Z,24.30
2023-05-22T07:03:22.304Z,24.30
2023-05-22T07:08:28.425Z,24.40
2023-05-22T07:13:33.262Z,24.50
2023-05-22T07:18:36.432Z,24.60
2023-05-22T07:23:40.712Z,24.60
2023-05-22T07:28:43.598Z,24.60
2023-05-22T07:33:46.467Z,24.70
2023-05-22T07:38:50.728Z,24.70
2023-05-22T07:43:53.827Z,24.70
2023-05-22T07:48:56.696Z,24.80
2023-05-22T07:54:00.950Z,24.70
2023-05-22T07:59:03.838Z,24.80
2023-05-22T08:04:07.149Z,24.70
2023-05-22T08:09:11.887Z,24.70
2023-05-22T08:14:14.941Z,24.70
2023-05-22T08:19:17.925Z,24.70
2023-05-22T08:24:22.423Z,24.70
2023-05-22T08:29:26.121Z,24.70
2023-05-22T08:34:29.510Z,24.70
2023-05-22T08:39:33.729Z,24.70
2023-05-22T08:44:36.744Z,24.70
2023-05-22T08:49:41.010Z,24.70
2023-05-22T08:54:53.166Z,24.60
2023-05-22T08:59:56.098Z,24.60
2023-05-22T09:04:59.016Z,24.60
2023-05-22T09:10:05.301Z,24.60
2023-05-22T09:15:12.336Z,24.60
2023-05-22T09:20:15.856Z,24.50
2023-05-22T09:25:21.583Z,24.50
2023-05-22T09:30:24.745Z,24.50
2023-05-22T09:35:28.146Z,24.50
2023-05-22T09:40:34.986Z,24.60
2023-05-22T09:45:39.464Z,24.50
2023-05-22T09:50:42.342Z,24.50
2023-05-22T09:55:49.157Z,24.50
2023-05-22T10:00:55.740Z,24.50
2023-05-22T10:05:59.865Z,24.40
2023-05-22T10:11:06.315Z,24.40
2023-05-22T10:16:12.055Z,24.50
2023-05-22T10:21:16.292Z,24.40
2023-05-22T10:26:20.881Z,24.40
2023-05-22T10:31:30.605Z,24.40
2023-05-22T10:36:48.332Z,24.40
2023-05-22T10:41:53.692Z,24.40
2023-05-22T10:46:56.616Z,24.40
2023-05-22T10:51:59.679Z,24.40
2023-05-22T10:57:14.730Z,24.40
2023-05-22T11:02:22.175Z,24.40
2023-05-22T11:07:25.304Z,24.40
2023-05-22T11:12:31.297Z,24.40
2023-05-22T11:17:41.412Z,24.40
2023-05-22T11:22:50.627Z,24.40
2023-05-22T11:27:56.138Z,24.40
2023-05-22T11:33:00.435Z,24.40
2023-05-22T11:38:07.293Z,24.40
2023-05-22T11:43:11.655Z,24.30
2023-05-22T11:48:15.698Z,24.30
2023-05-22T11:53:20.196Z,24.30
2023-05-22T11:58:28.562Z,24.30
2023-05-22T12:03:32.567Z,24.40
2023-05-22T12:08:35.798Z,24.30
2023-05-22T12:13:40.263Z,24.40
2023-05-22T12:18:43.398Z,24.30
2023-05-22T12:23:50.508Z,24.30
2023-05-22T12:28:55.664Z,24.40
2023-05-22T12:33:59.064Z,24.30
2023-05-22T12:39:01.942Z,24.30
2023-05-22T12:44:06.640Z,24.30
2023-05-22T12:49:09.838Z,24.30
2023-05-22T12:54:14.761Z,24.40
2023-05-22T12:59:20.743Z,24.30
2023-05-22T13:04:23.885Z,24.30
2023-05-22T13:09:26.785Z,24.30
2023-05-22T13:14:31.043Z,24.30
2023-05-22T13:19:34.684Z,24.40
2023-05-22T13:24:37.757Z,24.30
2023-05-22T13:29:41.949Z,24.30
2023-05-22T13:34:44.965Z,24.30
2023-05-22T13:39:48.134Z,24.30
2023-05-22T13:44:52.365Z,24.30
2023-05-22T13:49:55.253Z,24.30
2023-05-22T13:54:58.136Z,24.30
2023-05-22T14:00:02.428Z,24.30
2023-05-22T14:05:06.014Z,24.30
2023-05-22T14:10:10.262Z,24.30
2023-05-22T14:15:16.071Z,24.40
2023-05-22T14:20:19.346Z,24.30
2023-05-22T14:25:22.323Z,24.40
2023-05-22T14:30:26.669Z,24.40
2023-05-22T14:35:29.652Z,24.40
2023-05-22T14:40:32.524Z,24.40
2023-05-22T14:45:36.764Z,24.40
2023-05-22T14:50:39.657Z,24.40
2023-05-22T14:55:42.669Z,24.40
2023-05-22T15:00:47.394Z,24.40
2023-05-22T15:05:50.332Z,24.40
2023-05-22T15:10:53.625Z,24.40
2023-05-22T15:15:58.880Z,24.50
2023-05-22T15:21:02.148Z,24.50
2023-05-22T15:26:05.187Z,24.50
2023-05-22T15:31:09.506Z,24.50
2023-05-22T15:36:12.454Z,24.50
2023-05-22T15:41:15.326Z,24.50
2023-05-22T15:46:19.727Z,24.50
2023-05-22T15:51:22.619Z,24.60
2023-05-22T15:56:25.982Z,24.60
2023-05-22T16:01:30.389Z,24.60
2023-05-22T16:06:33.409Z,24.60
2023-05-22T16:11:37.769Z,24.60
2023-05-22T16:16:41.976Z,24.60
2023-05-22T16:21:45.251Z,24.60
2023-05-22T16:26:48.165Z,24.60
2023-05-22T16:31:52.679Z,24.60
2023-05-22T16:36:55.581Z,24.60
2023-05-22T16:41:58.467Z,24.70
2023-05-22T16:47:02.795Z,24.70
2023-05-22T16:52:06.263Z,24.80
2023-05-22T16:57:09.223Z,24.80
2023-05-22T17:02:13.678Z,24.80
2023-05-22T17:07:16.670Z,24.80
2023-05-22T17:12:19.584Z,24.80
2023-05-22T17:17:23.818Z,24.80
2023-05-22T17:22:26.768Z,24.90
2023-05-22T17:27:36.173Z,24.90
2023-05-22T17:32:41.162Z,24.90
2023-05-22T17:37:44.063Z,24.90
2023-05-22T17:42:46.987Z,24.90
2023-05-22T17:47:51.267Z,24.90
2023-05-22T17:52:54.192Z,24.80
2023-05-22T17:57:57.232Z,24.80
2023-05-22T18:03:01.517Z,24.80
2023-05-22T18:08:04.487Z,24.80
2023-05-22T18:13:07.672Z,24.70
2023-05-22T18:18:13.152Z,24.70
2023-05-22T18:23:16.314Z,24.70
2023-05-22T18:28:23.289Z,24.70
2023-05-22T18:33:27.584Z,24.70
2023-05-22T18:38:30.723Z,24.60
2023-05-22T18:43:33.788Z,24.60
2023-05-22T18:48:38.018Z,24.50
2023-05-22T18:53:40.874Z,24.50
2023-05-22T18:58:43.767Z,24.50
2023-05-22T19:03:47.978Z,24.50
2023-05-22T19:08:50.870Z,24.40
2023-05-22T19:13:53.961Z,24.40
2023-05-22T19:18:58.210Z,24.30
2023-05-22T19:24:01.162Z,24.30
2023-05-22T19:29:04.162Z,24.20
2023-05-22T19:34:08.421Z,24.20
2023-05-22T19:39:11.434Z,24.10
2023-05-22T19:44:14.339Z,24.10
2023-05-22T19:49:18.546Z,24.10
2023-05-22T19:54:21.497Z,24.10
2023-05-22T19:59:24.469Z,24.10
2023-05-22T20:04:28.702Z,24.10
2023-05-22T20:09:31.603Z,24.10
2023-05-22T20:14:34.495Z,24.00
2023-05-22T20:19:38.814Z,24.00
2023-05-22T20:24:41.837Z,24.00
2023-05-22T20:29:44.761Z,24.00
2023-05-22T20:34:50.087Z,24.00
2023-05-22T20:39:53.104Z,24.00
2023-05-22T20:44:56.021Z,24.00
2023-05-22T20:50:00.268Z,24.00
2023-05-22T20:55:03.344Z,24.00
2023-05-22T21:00:11.161Z,24.00
2023-05-22T21:05:15.577Z,23.90
2023-05-22T21:10:18.582Z,24.00
2023-05-22T21:15:21.554Z,23.90
2023-05-22T21:20:27.554Z,23.90
2023-05-22T21:25:30.572Z,23.80
2023-05-22T21:30:33.465Z,23.80
2023-05-22T21:35:37.760Z,23.70
2023-05-22T21:40:42.618Z,23.70
2023-05-22T21:45:46.036Z,23.70
2023-05-22T21:50:50.274Z,23.70
2023-05-22T21:55:53.160Z,23.70
2023-05-22T22:00:56.072Z,23.70
2023-05-22T22:06:00.329Z,23.70
2023-05-22T22:11:03.546Z,23.70
2023-05-22T22:16:06.701Z,23.70
2023-05-22T22:21:47.422Z,23.70
2023-05-22T22:26:51.645Z,23.70
2023-05-22T22:31:54.634Z,23.70
2023-05-22T22:36:57.622Z,23.70
2023-05-22T22:42:04.980Z,23.70
2023-05-22T22:47:08.350Z,23.70
2023-05-22T22:52:11.281Z,23.70
2023-05-22T22:57:15.742Z,23.70
2023-05-22T23:02:18.612Z,23.70
2023-05-22T23:07:24.158Z,23.70
2023-05-22T23:12:28.359Z,23.60
2023-05-22T23:17:31.595Z,23.70
2023-05-22T23:22:34.516Z,23.60
2023-05-22T23:27:39.313Z,23.60
2023-05-22T23:32:42.301Z,23.60
2023-05-22T23:37:45.285Z,23.70
2023-05-22T23:42:49.532Z,23.60
2023-05-22T23:47:52.421Z,23.60
2023-05-22T23:52:55.346Z,23.60
2023-05-22T23:57:59.565Z,23.60
